sensor_id;sensor_type;location;lat;lon;timestamp;temperature;humidity
45207;DHT22;30950;53.086;21.576;2022-10-31T00:01:30;9.50;99.90
45207;DHT22;30950;53.086;21.576;2022-10-31T00:03:57;9.50;99.90
45207;DHT22;30950;53.086;21.576;2022-10-31T00:06:25;9.50;99.90
45207;DHT22;30950;53.086;21.576;2022-10-31T00:08:55;9.60;99.90
45207;DHT22;30950;53.086;21.576;2022-10-31T00:11:23;9.60;99.90
45207;DHT22;30950;53.086;21.576;2022-10-31T00:13:51;9.70;99.90
45207;DHT22;30950;53.086;21.576;2022-10-31T00:16:21;9.70;99.90
45207;DHT22;30950;53.086;21.576;2022-10-31T00:18:55;9.70;99.90
45207;DHT22;30950;53.086;21.576;2022-10-31T00:21:24;9.80;99.90
45207;DHT22;30950;53.086;21.576;2022-10-31T00:23:51;9.80;99.90
45207;DHT22;30950;53.086;21.576;2022-10-31T00:26:19;9.80;99.90
45207;DHT22;30950;53.086;21.576;2022-10-31T00:28:47;9.90;99.90
45207;DHT22;30950;53.086;21.576;2022-10-31T00:31:14;9.90;99.90
45207;DHT22;30950;53.086;21.576;2022-10-31T00:33:41;9.90;99.90
45207;DHT22;30950;53.086;21.576;2022-10-31T00:36:15;10.00;99.90
45207;DHT22;30950;53.086;21.576;2022-10-31T00:38:43;10.00;99.90
45207;DHT22;30950;53.086;21.576;2022-10-31T00:41:12;10.00;99.90
45207;DHT22;30950;53.086;21.576;2022-10-31T00:43:41;10.10;99.90
45207;DHT22;30950;53.086;21.576;2022-10-31T00:46:10;10.10;99.90
45207;DHT22;30950;53.086;21.576;2022-10-31T00:48:37;10.00;99.90
45207;DHT22;30950;53.086;21.576;2022-10-31T00:51:05;10.10;99.90
45207;DHT22;30950;53.086;21.576;2022-10-31T00:53:33;10.00;99.90
45207;DHT22;30950;53.086;21.576;2022-10-31T00:56:02;10.00;99.90
45207;DHT22;30950;53.086;21.576;2022-10-31T00:58:29;10.00;99.90
45207;DHT22;30950;53.086;21.576;2022-10-31T01:00:57;10.00;99.90
45207;DHT22;30950;53.086;21.576;2022-10-31T01:03:26;9.90;99.90
45207;DHT22;30950;53.086;21.576;2022-10-31T01:05:59;9.90;99.90
45207;DHT22;30950;53.086;21.576;2022-10-31T01:08:32;9.80;99.90
45207;DHT22;30950;53.086;21.576;2022-10-31T01:11:01;9.70;99.90
45207;DHT22;30950;53.086;21.576;2022-10-31T01:13:29;9.70;99.90
45207;DHT22;30950;53.086;21.576;2022-10-31T01:15:59;9.60;99.90
45207;DHT22;30950;53.086;21.576;2022-10-31T01:18:27;9.50;99.90
45207;DHT22;30950;53.086;21.576;2022-10-31T01:23:36;9.40;99.90
45207;DHT22;30950;53.086;21.576;2022-10-31T01:28:45;9.30;99.90
45207;DHT22;30950;53.086;21.576;2022-10-31T01:31:14;9.20;99.90
45207;DHT22;30950;53.086;21.576;2022-10-31T01:33:42;9.20;99.90
45207;DHT22;30950;53.086;21.576;2022-10-31T01:38:56;9.10;99.90
45207;DHT22;30950;53.086;21.576;2022-10-31T01:41:27;9.10;99.90
45207;DHT22;30950;53.086;21.576;2022-10-31T01:47:05;9.00;99.90
45207;DHT22;30950;53.086;21.576;2022-10-31T01:49:41;9.10;99.90
45207;DHT22;30950;53.086;21.576;2022-10-31T01:52:44;9.00;99.90
45207;DHT22;30950;53.086;21.576;2022-10-31T01:55:40;9.00;99.90
45207;DHT22;30950;53.086;21.576;2022-10-31T01:58:13;9.00;99.90
45207;DHT22;30950;53.086;21.576;2022-10-31T02:00:43;9.00;99.90
45207;DHT22;30950;53.086;21.576;2022-10-31T02:03:12;8.90;99.90
45207;DHT22;30950;53.086;21.576;2022-10-31T02:05:39;8.90;99.90
45207;DHT22;30950;53.086;21.576;2022-10-31T02:08:26;8.90;99.90
45207;DHT22;30950;53.086;21.576;2022-10-31T02:10:54;8.90;99.90
45207;DHT22;30950;53.086;21.576;2022-10-31T02:13:23;8.90;99.90
45207;DHT22;30950;53.086;21.576;2022-10-31T02:15:58;8.80;99.90
45207;DHT22;30950;53.086;21.576;2022-10-31T02:18:29;8.80;99.90
45207;DHT22;30950;53.086;21.576;2022-10-31T02:21:26;8.80;99.90
45207;DHT22;30950;53.086;21.576;2022-10-31T02:29:59;8.80;99.90
45207;DHT22;30950;53.086;21.576;2022-10-31T02:32:43;8.90;99.90
45207;DHT22;30950;53.086;21.576;2022-10-31T02:35:33;8.90;99.90
45207;DHT22;30950;53.086;21.576;2022-10-31T02:46:51;9.00;99.90
45207;DHT22;30950;53.086;21.576;2022-10-31T02:49:34;9.00;99.90
45207;DHT22;30950;53.086;21.576;2022-10-31T02:52:20;9.00;99.90
45207;DHT22;30950;53.086;21.576;2022-10-31T02:54:48;9.00;99.90
45207;DHT22;30950;53.086;21.576;2022-10-31T02:57:33;9.00;99.90
45207;DHT22;30950;53.086;21.576;2022-10-31T03:00:06;9.00;99.90
45207;DHT22;30950;53.086;21.576;2022-10-31T03:15:37;9.10;99.90
45207;DHT22;30950;53.086;21.576;2022-10-31T03:20:58;9.20;99.90
45207;DHT22;30950;53.086;21.576;2022-10-31T03:23:28;9.20;99.90
45207;DHT22;30950;53.086;21.576;2022-10-31T03:25:56;9.20;99.90
45207;DHT22;30950;53.086;21.576;2022-10-31T03:28:31;9.30;99.90
45207;DHT22;30950;53.086;21.576;2022-10-31T03:31:04;9.30;99.90
45207;DHT22;30950;53.086;21.576;2022-10-31T03:33:38;9.30;99.90
45207;DHT22;30950;53.086;21.576;2022-10-31T03:36:09;9.30;99.90
45207;DHT22;30950;53.086;21.576;2022-10-31T03:38:38;9.40;99.90
45207;DHT22;30950;53.086;21.576;2022-10-31T03:41:12;9.40;99.90
45207;DHT22;30950;53.086;21.576;2022-10-31T03:43:44;9.40;99.90
45207;DHT22;30950;53.086;21.576;2022-10-31T03:46:14;9.40;99.90
45207;DHT22;30950;53.086;21.576;2022-10-31T03:48:43;9.40;99.90
45207;DHT22;30950;53.086;21.576;2022-10-31T03:51:24;9.40;99.90
45207;DHT22;30950;53.086;21.576;2022-10-31T03:54:09;9.40;99.90
45207;DHT22;30950;53.086;21.576;2022-10-31T03:56:45;9.40;99.90
45207;DHT22;30950;53.086;21.576;2022-10-31T03:59:37;9.40;99.90
45207;DHT22;30950;53.086;21.576;2022-10-31T04:02:13;9.40;99.90
45207;DHT22;30950;53.086;21.576;2022-10-31T04:04:44;9.40;99.90
45207;DHT22;30950;53.086;21.576;2022-10-31T04:07:13;9.40;99.90
45207;DHT22;30950;53.086;21.576;2022-10-31T04:09:44;9.40;99.90
45207;DHT22;30950;53.086;21.576;2022-10-31T04:12:15;9.40;99.90
45207;DHT22;30950;53.086;21.576;2022-10-31T04:15:02;9.40;99.90
45207;DHT22;30950;53.086;21.576;2022-10-31T04:17:31;9.40;99.90
45207;DHT22;30950;53.086;21.576;2022-10-31T04:20:00;9.40;99.90
45207;DHT22;30950;53.086;21.576;2022-10-31T04:22:29;9.50;99.90
45207;DHT22;30950;53.086;21.576;2022-10-31T04:24:56;9.50;99.90
45207;DHT22;30950;53.086;21.576;2022-10-31T04:27:23;9.50;99.90
45207;DHT22;30950;53.086;21.576;2022-10-31T04:29:51;9.50;99.90
45207;DHT22;30950;53.086;21.576;2022-10-31T04:32:19;9.50;99.90
45207;DHT22;30950;53.086;21.576;2022-10-31T04:34:46;9.50;99.90
45207;DHT22;30950;53.086;21.576;2022-10-31T04:37:13;9.50;99.90
45207;DHT22;30950;53.086;21.576;2022-10-31T04:39:41;9.50;99.90
45207;DHT22;30950;53.086;21.576;2022-10-31T04:42:29;9.50;99.90
45207;DHT22;30950;53.086;21.576;2022-10-31T04:44:59;9.50;99.90
45207;DHT22;30950;53.086;21.576;2022-10-31T04:47:26;9.50;99.90
45207;DHT22;30950;53.086;21.576;2022-10-31T04:49:54;9.50;99.90
45207;DHT22;30950;53.086;21.576;2022-10-31T04:52:21;9.50;99.90
45207;DHT22;30950;53.086;21.576;2022-10-31T04:54:52;9.50;99.90
45207;DHT22;30950;53.086;21.576;2022-10-31T04:57:51;9.50;99.90
45207;DHT22;30950;53.086;21.576;2022-10-31T05:00:21;9.60;99.90
45207;DHT22;30950;53.086;21.576;2022-10-31T05:02:56;9.50;99.90
45207;DHT22;30950;53.086;21.576;2022-10-31T05:05:30;9.60;99.90
45207;DHT22;30950;53.086;21.576;2022-10-31T05:08:00;9.60;99.90
45207;DHT22;30950;53.086;21.576;2022-10-31T05:10:30;9.60;99.90
45207;DHT22;30950;53.086;21.576;2022-10-31T05:13:01;9.60;99.90
45207;DHT22;30950;53.086;21.576;2022-10-31T05:16:02;9.60;99.90
45207;DHT22;30950;53.086;21.576;2022-10-31T05:18:48;9.60;99.90
45207;DHT22;30950;53.086;21.576;2022-10-31T05:21:34;9.70;99.90
45207;DHT22;30950;53.086;21.576;2022-10-31T05:24:03;9.70;99.90
45207;DHT22;30950;53.086;21.576;2022-10-31T05:26:31;9.70;99.90
45207;DHT22;30950;53.086;21.576;2022-10-31T05:28:59;9.70;99.90
45207;DHT22;30950;53.086;21.576;2022-10-31T05:31:27;9.70;99.90
45207;DHT22;30950;53.086;21.576;2022-10-31T05:33:55;9.70;99.90
45207;DHT22;30950;53.086;21.576;2022-10-31T05:36:40;9.70;99.90
45207;DHT22;30950;53.086;21.576;2022-10-31T05:39:25;9.70;99.90
45207;DHT22;30950;53.086;21.576;2022-10-31T05:41:56;9.70;99.90
45207;DHT22;30950;53.086;21.576;2022-10-31T05:44:26;9.80;99.90
45207;DHT22;30950;53.086;21.576;2022-10-31T05:47:20;9.80;99.90
45207;DHT22;30950;53.086;21.576;2022-10-31T05:50:11;9.80;99.90
45207;DHT22;30950;53.086;21.576;2022-10-31T05:52:46;9.80;99.90
45207;DHT22;30950;53.086;21.576;2022-10-31T05:55:34;9.90;99.90
45207;DHT22;30950;53.086;21.576;2022-10-31T05:58:13;9.90;99.90
45207;DHT22;30950;53.086;21.576;2022-10-31T06:00:49;9.90;99.90
45207;DHT22;30950;53.086;21.576;2022-10-31T06:03:16;9.90;99.90
45207;DHT22;30950;53.086;21.576;2022-10-31T06:05:55;10.00;99.90
45207;DHT22;30950;53.086;21.576;2022-10-31T06:08:26;10.00;99.90
45207;DHT22;30950;53.086;21.576;2022-10-31T06:10:56;10.00;99.90
45207;DHT22;30950;53.086;21.576;2022-10-31T06:13:50;10.00;99.90
45207;DHT22;30950;53.086;21.576;2022-10-31T06:16:29;10.00;99.90
45207;DHT22;30950;53.086;21.576;2022-10-31T06:19:02;10.00;99.90
45207;DHT22;30950;53.086;21.576;2022-10-31T06:21:30;10.10;99.90
45207;DHT22;30950;53.086;21.576;2022-10-31T06:23:58;10.10;99.90
45207;DHT22;30950;53.086;21.576;2022-10-31T06:26:45;10.10;99.90
45207;DHT22;30950;53.086;21.576;2022-10-31T06:29:13;10.20;99.90
45207;DHT22;30950;53.086;21.576;2022-10-31T06:32:10;10.20;99.90
45207;DHT22;30950;53.086;21.576;2022-10-31T06:34:41;10.20;99.90
45207;DHT22;30950;53.086;21.576;2022-10-31T06:37:11;10.30;99.90
45207;DHT22;30950;53.086;21.576;2022-10-31T06:39:41;10.30;99.90
45207;DHT22;30950;53.086;21.576;2022-10-31T06:42:11;10.30;99.90
45207;DHT22;30950;53.086;21.576;2022-10-31T06:44:38;10.40;99.90
45207;DHT22;30950;53.086;21.576;2022-10-31T06:47:24;10.40;99.90
45207;DHT22;30950;53.086;21.576;2022-10-31T06:50:03;10.50;99.90
45207;DHT22;30950;53.086;21.576;2022-10-31T06:52:31;10.50;99.90
45207;DHT22;30950;53.086;21.576;2022-10-31T06:54:59;10.60;99.90
45207;DHT22;30950;53.086;21.576;2022-10-31T06:57:28;10.60;99.90
45207;DHT22;30950;53.086;21.576;2022-10-31T06:59:55;10.60;99.90
45207;DHT22;30950;53.086;21.576;2022-10-31T07:02:41;10.70;99.90
45207;DHT22;30950;53.086;21.576;2022-10-31T07:05:08;10.70;99.90
45207;DHT22;30950;53.086;21.576;2022-10-31T07:07:36;10.80;99.90
45207;DHT22;30950;53.086;21.576;2022-10-31T07:10:03;10.80;99.90
45207;DHT22;30950;53.086;21.576;2022-10-31T07:13:05;10.80;99.90
45207;DHT22;30950;53.086;21.576;2022-10-31T07:15:37;10.80;99.90
45207;DHT22;30950;53.086;21.576;2022-10-31T07:18:07;10.80;99.90
45207;DHT22;30950;53.086;21.576;2022-10-31T07:20:34;10.80;99.90
45207;DHT22;30950;53.086;21.576;2022-10-31T07:23:03;10.80;99.90
45207;DHT22;30950;53.086;21.576;2022-10-31T07:25:32;10.80;99.90
45207;DHT22;30950;53.086;21.576;2022-10-31T07:28:26;10.90;99.90
45207;DHT22;30950;53.086;21.576;2022-10-31T07:30:56;10.80;99.90
45207;DHT22;30950;53.086;21.576;2022-10-31T07:33:24;10.90;99.90
45207;DHT22;30950;53.086;21.576;2022-10-31T07:36:18;10.80;99.90
45207;DHT22;30950;53.086;21.576;2022-10-31T07:38:48;10.80;99.90
45207;DHT22;30950;53.086;21.576;2022-10-31T07:41:15;10.80;99.90
45207;DHT22;30950;53.086;21.576;2022-10-31T07:43:44;10.80;99.90
45207;DHT22;30950;53.086;21.576;2022-10-31T07:46:30;10.80;99.90
45207;DHT22;30950;53.086;21.576;2022-10-31T07:49:27;10.80;99.90
45207;DHT22;30950;53.086;21.576;2022-10-31T07:52:12;10.80;99.90
45207;DHT22;30950;53.086;21.576;2022-10-31T07:54:58;10.80;99.90
45207;DHT22;30950;53.086;21.576;2022-10-31T07:57:26;10.90;99.90
45207;DHT22;30950;53.086;21.576;2022-10-31T08:00:00;10.80;99.90
45207;DHT22;30950;53.086;21.576;2022-10-31T08:02:29;10.90;99.90
45207;DHT22;30950;53.086;21.576;2022-10-31T08:04:56;10.90;99.90
45207;DHT22;30950;53.086;21.576;2022-10-31T08:07:45;10.90;99.90
45207;DHT22;30950;53.086;21.576;2022-10-31T08:10:19;10.90;99.90
45207;DHT22;30950;53.086;21.576;2022-10-31T08:12:55;10.90;99.90
45207;DHT22;30950;53.086;21.576;2022-10-31T08:15:22;10.90;99.90
45207;DHT22;30950;53.086;21.576;2022-10-31T08:17:51;10.90;99.90
45207;DHT22;30950;53.086;21.576;2022-10-31T08:20:19;10.90;99.90
45207;DHT22;30950;53.086;21.576;2022-10-31T08:22:55;10.90;99.90
45207;DHT22;30950;53.086;21.576;2022-10-31T08:25:23;10.90;99.90
45207;DHT22;30950;53.086;21.576;2022-10-31T08:27:52;11.00;99.90
45207;DHT22;30950;53.086;21.576;2022-10-31T08:30:23;11.00;99.90
45207;DHT22;30950;53.086;21.576;2022-10-31T08:33:13;11.00;99.90
45207;DHT22;30950;53.086;21.576;2022-10-31T08:36:10;11.00;99.90
45207;DHT22;30950;53.086;21.576;2022-10-31T08:39:01;11.00;99.90
45207;DHT22;30950;53.086;21.576;2022-10-31T08:41:30;11.00;99.90
45207;DHT22;30950;53.086;21.576;2022-10-31T08:43:59;11.00;99.90
45207;DHT22;30950;53.086;21.576;2022-10-31T08:46:26;11.10;99.90
45207;DHT22;30950;53.086;21.576;2022-10-31T08:48:54;11.00;99.90
45207;DHT22;30950;53.086;21.576;2022-10-31T08:51:22;11.10;99.90
45207;DHT22;30950;53.086;21.576;2022-10-31T08:53:53;11.10;99.90
45207;DHT22;30950;53.086;21.576;2022-10-31T08:56:32;11.00;99.90
45207;DHT22;30950;53.086;21.576;2022-10-31T08:59:02;11.00;99.90
45207;DHT22;30950;53.086;21.576;2022-10-31T09:01:55;11.10;99.90
45207;DHT22;30950;53.086;21.576;2022-10-31T09:04:24;11.20;99.90
45207;DHT22;30950;53.086;21.576;2022-10-31T09:06:51;11.20;99.90
45207;DHT22;30950;53.086;21.576;2022-10-31T09:09:39;11.30;99.90
45207;DHT22;30950;53.086;21.576;2022-10-31T09:12:06;11.30;99.90
45207;DHT22;30950;53.086;21.576;2022-10-31T09:14:53;11.30;99.90
45207;DHT22;30950;53.086;21.576;2022-10-31T09:17:31;11.40;99.90
45207;DHT22;30950;53.086;21.576;2022-10-31T09:20:17;11.40;99.90
45207;DHT22;30950;53.086;21.576;2022-10-31T09:22:45;11.40;99.90
45207;DHT22;30950;53.086;21.576;2022-10-31T09:25:13;11.40;99.90
45207;DHT22;30950;53.086;21.576;2022-10-31T09:27:44;11.40;99.90
45207;DHT22;30950;53.086;21.576;2022-10-31T09:30:12;11.40;99.90
45207;DHT22;30950;53.086;21.576;2022-10-31T09:32:43;11.50;99.90
45207;DHT22;30950;53.086;21.576;2022-10-31T09:35:10;11.50;99.90
45207;DHT22;30950;53.086;21.576;2022-10-31T09:37:43;11.60;99.90
45207;DHT22;30950;53.086;21.576;2022-10-31T09:40:10;11.60;99.90
45207;DHT22;30950;53.086;21.576;2022-10-31T09:42:50;11.70;99.90
45207;DHT22;30950;53.086;21.576;2022-10-31T09:45:28;11.70;99.90
45207;DHT22;30950;53.086;21.576;2022-10-31T09:51:19;11.80;99.90
45207;DHT22;30950;53.086;21.576;2022-10-31T09:54:38;11.80;99.90
45207;DHT22;30950;53.086;21.576;2022-10-31T09:57:12;11.90;99.90
45207;DHT22;30950;53.086;21.576;2022-10-31T09:59:44;11.90;99.90
45207;DHT22;30950;53.086;21.576;2022-10-31T10:02:21;11.90;99.90
45207;DHT22;30950;53.086;21.576;2022-10-31T10:05:00;11.90;99.90
45207;DHT22;30950;53.086;21.576;2022-10-31T10:10:23;12.00;99.90
45207;DHT22;30950;53.086;21.576;2022-10-31T10:27:12;12.00;99.90
45207;DHT22;30950;53.086;21.576;2022-10-31T10:30:04;12.00;99.90
45207;DHT22;30950;53.086;21.576;2022-10-31T10:32:48;12.10;99.90
45207;DHT22;30950;53.086;21.576;2022-10-31T10:37:57;12.10;99.90
45207;DHT22;30950;53.086;21.576;2022-10-31T10:40:28;12.10;99.90
45207;DHT22;30950;53.086;21.576;2022-10-31T10:42:59;12.10;99.90
45207;DHT22;30950;53.086;21.576;2022-10-31T10:51:59;12.20;99.90
45207;DHT22;30950;53.086;21.576;2022-10-31T11:00:19;12.30;99.90
45207;DHT22;30950;53.086;21.576;2022-10-31T11:02:47;12.30;99.90
45207;DHT22;30950;53.086;21.576;2022-10-31T11:05:37;12.30;99.90
45207;DHT22;30950;53.086;21.576;2022-10-31T11:08:06;12.30;99.90
45207;DHT22;30950;53.086;21.576;2022-10-31T11:10:35;12.20;99.90
45207;DHT22;30950;53.086;21.576;2022-10-31T11:18:22;12.30;99.90
45207;DHT22;30950;53.086;21.576;2022-10-31T11:20:59;12.30;99.90
45207;DHT22;30950;53.086;21.576;2022-10-31T11:23:27;12.30;99.90
45207;DHT22;30950;53.086;21.576;2022-10-31T11:26:14;12.30;99.90
45207;DHT22;30950;53.086;21.576;2022-10-31T11:28:58;12.40;99.90
45207;DHT22;30950;53.086;21.576;2022-10-31T11:31:27;12.40;99.90
45207;DHT22;30950;53.086;21.576;2022-10-31T11:34:07;12.40;99.90
45207;DHT22;30950;53.086;21.576;2022-10-31T11:36:43;12.40;99.90
45207;DHT22;30950;53.086;21.576;2022-10-31T11:39:21;12.40;99.90
45207;DHT22;30950;53.086;21.576;2022-10-31T11:41:52;12.40;99.90
45207;DHT22;30950;53.086;21.576;2022-10-31T11:44:23;12.50;99.90
45207;DHT22;30950;53.086;21.576;2022-10-31T11:46:56;12.50;99.90
45207;DHT22;30950;53.086;21.576;2022-10-31T11:49:30;12.60;99.90
45207;DHT22;30950;53.086;21.576;2022-10-31T11:52:01;12.60;99.90
45207;DHT22;30950;53.086;21.576;2022-10-31T11:54:37;12.60;99.90
45207;DHT22;30950;53.086;21.576;2022-10-31T11:57:25;12.60;99.90
45207;DHT22;30950;53.086;21.576;2022-10-31T12:00:01;12.60;99.90
45207;DHT22;30950;53.086;21.576;2022-10-31T12:02:38;12.60;99.90
45207;DHT22;30950;53.086;21.576;2022-10-31T12:05:21;12.60;99.90
45207;DHT22;30950;53.086;21.576;2022-10-31T12:07:50;12.60;99.90
45207;DHT22;30950;53.086;21.576;2022-10-31T12:10:20;12.60;99.90
45207;DHT22;30950;53.086;21.576;2022-10-31T12:13:02;12.60;99.90
45207;DHT22;30950;53.086;21.576;2022-10-31T12:15:45;12.60;99.90
45207;DHT22;30950;53.086;21.576;2022-10-31T12:18:42;12.60;99.90
45207;DHT22;30950;53.086;21.576;2022-10-31T12:24:10;12.70;99.90
45207;DHT22;30950;53.086;21.576;2022-10-31T12:30:02;12.70;99.90
45207;DHT22;30950;53.086;21.576;2022-10-31T12:41:56;13.20;99.90
45207;DHT22;30950;53.086;21.576;2022-10-31T12:58:02;13.50;99.90
45207;DHT22;30950;53.086;21.576;2022-10-31T13:00:33;13.50;99.90
45207;DHT22;30950;53.086;21.576;2022-10-31T13:03:25;13.60;99.90
45207;DHT22;30950;53.086;21.576;2022-10-31T13:06:02;13.70;99.90
45207;DHT22;30950;53.086;21.576;2022-10-31T13:16:43;13.90;99.90
45207;DHT22;30950;53.086;21.576;2022-10-31T13:19:19;14.00;99.90
45207;DHT22;30950;53.086;21.576;2022-10-31T13:27:26;14.20;99.90
45207;DHT22;30950;53.086;21.576;2022-10-31T13:32:41;14.20;99.90
45207;DHT22;30950;53.086;21.576;2022-10-31T13:35:25;14.30;99.90
45207;DHT22;30950;53.086;21.576;2022-10-31T13:38:21;14.30;99.90
45207;DHT22;30950;53.086;21.576;2022-10-31T13:46:40;14.40;99.90
45207;DHT22;30950;53.086;21.576;2022-10-31T13:59:57;15.10;99.90
45207;DHT22;30950;53.086;21.576;2022-10-31T14:02:31;15.20;99.90
45207;DHT22;30950;53.086;21.576;2022-10-31T14:07:49;15.50;99.90
45207;DHT22;30950;53.086;21.576;2022-10-31T14:12:49;15.40;99.90
45207;DHT22;30950;53.086;21.576;2022-10-31T14:15:26;15.30;99.90
45207;DHT22;30950;53.086;21.576;2022-10-31T14:18:06;15.10;99.90
45207;DHT22;30950;53.086;21.576;2022-10-31T14:20:44;15.00;99.90
45207;DHT22;30950;53.086;21.576;2022-10-31T14:23:34;14.80;99.90
45207;DHT22;30950;53.086;21.576;2022-10-31T14:28:56;14.60;99.90
45207;DHT22;30950;53.086;21.576;2022-10-31T14:31:38;14.50;99.90
45207;DHT22;30950;53.086;21.576;2022-10-31T14:47:59;13.60;99.90
45207;DHT22;30950;53.086;21.576;2022-10-31T14:53:14;13.40;99.90
45207;DHT22;30950;53.086;21.576;2022-10-31T14:55:47;13.30;99.90
45207;DHT22;30950;53.086;21.576;2022-10-31T14:58:42;13.20;99.90
45207;DHT22;30950;53.086;21.576;2022-10-31T15:01:30;13.10;99.90
45207;DHT22;30950;53.086;21.576;2022-10-31T15:04:22;12.90;99.90
45207;DHT22;30950;53.086;21.576;2022-10-31T15:07:17;12.90;99.90
45207;DHT22;30950;53.086;21.576;2022-10-31T15:10:19;12.80;99.90
45207;DHT22;30950;53.086;21.576;2022-10-31T15:12:45;12.70;99.90
45207;DHT22;30950;53.086;21.576;2022-10-31T15:15:23;12.60;99.90
45207;DHT22;30950;53.086;21.576;2022-10-31T15:17:56;12.50;99.90
45207;DHT22;30950;53.086;21.576;2022-10-31T15:20:27;12.40;99.90
45207;DHT22;30950;53.086;21.576;2022-10-31T15:22:57;12.30;99.90
45207;DHT22;30950;53.086;21.576;2022-10-31T15:25:28;12.30;99.90
45207;DHT22;30950;53.086;21.576;2022-10-31T15:27:57;12.20;99.90
45207;DHT22;30950;53.086;21.576;2022-10-31T15:30:27;12.10;99.90
45207;DHT22;30950;53.086;21.576;2022-10-31T15:32:54;12.10;99.90
45207;DHT22;30950;53.086;21.576;2022-10-31T15:35:30;12.00;99.90
45207;DHT22;30950;53.086;21.576;2022-10-31T15:37:58;11.90;99.90
45207;DHT22;30950;53.086;21.576;2022-10-31T15:40:27;11.90;99.90
45207;DHT22;30950;53.086;21.576;2022-10-31T15:43:05;11.80;99.90
45207;DHT22;30950;53.086;21.576;2022-10-31T15:45:34;11.80;99.90
45207;DHT22;30950;53.086;21.576;2022-10-31T15:48:23;11.70;99.90
45207;DHT22;30950;53.086;21.576;2022-10-31T15:50:56;11.60;99.90
45207;DHT22;30950;53.086;21.576;2022-10-31T15:54:10;11.60;99.90
45207;DHT22;30950;53.086;21.576;2022-10-31T15:56:24;11.50;99.90
45207;DHT22;30950;53.086;21.576;2022-10-31T15:58:53;11.40;99.90
45207;DHT22;30950;53.086;21.576;2022-10-31T16:04:05;11.30;99.90
45207;DHT22;30950;53.086;21.576;2022-10-31T16:07:00;11.30;99.90
45207;DHT22;30950;53.086;21.576;2022-10-31T16:09:28;11.20;99.90
45207;DHT22;30950;53.086;21.576;2022-10-31T16:11:57;11.20;99.90
45207;DHT22;30950;53.086;21.576;2022-10-31T16:14:28;11.10;99.90
45207;DHT22;30950;53.086;21.576;2022-10-31T16:16:58;11.10;99.90
45207;DHT22;30950;53.086;21.576;2022-10-31T16:19:32;11.10;99.90
45207;DHT22;30950;53.086;21.576;2022-10-31T16:24:36;11.00;99.90
45207;DHT22;30950;53.086;21.576;2022-10-31T16:27:15;11.00;99.90
45207;DHT22;30950;53.086;21.576;2022-10-31T16:29:46;10.90;99.90
45207;DHT22;30950;53.086;21.576;2022-10-31T16:32:28;10.90;99.90
45207;DHT22;30950;53.086;21.576;2022-10-31T16:37:47;10.80;99.90
45207;DHT22;30950;53.086;21.576;2022-10-31T16:40:14;10.80;99.90
45207;DHT22;30950;53.086;21.576;2022-10-31T16:42:43;10.70;99.90
45207;DHT22;30950;53.086;21.576;2022-10-31T16:47:46;10.70;99.90
45207;DHT22;30950;53.086;21.576;2022-10-31T16:50:17;10.70;99.90
45207;DHT22;30950;53.086;21.576;2022-10-31T16:52:45;10.70;99.90
45207;DHT22;30950;53.086;21.576;2022-10-31T16:55:34;10.70;99.90
45207;DHT22;30950;53.086;21.576;2022-10-31T16:58:12;10.70;99.90
45207;DHT22;30950;53.086;21.576;2022-10-31T17:00:41;10.70;99.90
45207;DHT22;30950;53.086;21.576;2022-10-31T17:03:09;10.60;99.90
45207;DHT22;30950;53.086;21.576;2022-10-31T17:05:38;10.60;99.90
45207;DHT22;30950;53.086;21.576;2022-10-31T17:08:06;10.50;99.90
45207;DHT22;30950;53.086;21.576;2022-10-31T17:10:34;10.50;99.90
45207;DHT22;30950;53.086;21.576;2022-10-31T17:13:02;10.50;99.90
45207;DHT22;30950;53.086;21.576;2022-10-31T17:15:37;10.40;99.90
45207;DHT22;30950;53.086;21.576;2022-10-31T17:18:06;10.40;99.90
45207;DHT22;30950;53.086;21.576;2022-10-31T17:20:33;10.30;99.90
45207;DHT22;30950;53.086;21.576;2022-10-31T17:23:01;10.30;99.90
45207;DHT22;30950;53.086;21.576;2022-10-31T17:25:30;10.30;99.90
45207;DHT22;30950;53.086;21.576;2022-10-31T17:28:00;10.20;99.90
45207;DHT22;30950;53.086;21.576;2022-10-31T17:30:27;10.20;99.90
45207;DHT22;30950;53.086;21.576;2022-10-31T17:32:55;10.20;99.90
45207;DHT22;30950;53.086;21.576;2022-10-31T17:35:23;10.10;99.90
45207;DHT22;30950;53.086;21.576;2022-10-31T17:37:50;10.10;99.90
45207;DHT22;30950;53.086;21.576;2022-10-31T17:40:19;10.10;99.90
45207;DHT22;30950;53.086;21.576;2022-10-31T17:42:51;10.10;99.90
45207;DHT22;30950;53.086;21.576;2022-10-31T17:45:20;10.10;99.90
45207;DHT22;30950;53.086;21.576;2022-10-31T17:47:49;10.10;99.90
45207;DHT22;30950;53.086;21.576;2022-10-31T17:50:21;10.10;99.90
45207;DHT22;30950;53.086;21.576;2022-10-31T17:52:49;10.10;99.90
45207;DHT22;30950;53.086;21.576;2022-10-31T17:55:17;10.10;99.90
45207;DHT22;30950;53.086;21.576;2022-10-31T17:57:45;10.10;99.90
45207;DHT22;30950;53.086;21.576;2022-10-31T18:00:18;10.10;99.90
45207;DHT22;30950;53.086;21.576;2022-10-31T18:02:47;10.10;99.90
45207;DHT22;30950;53.086;21.576;2022-10-31T18:05:14;10.10;99.90
45207;DHT22;30950;53.086;21.576;2022-10-31T18:07:41;10.10;99.90
45207;DHT22;30950;53.086;21.576;2022-10-31T18:10:09;10.10;99.90
45207;DHT22;30950;53.086;21.576;2022-10-31T18:12:37;10.10;99.90
45207;DHT22;30950;53.086;21.576;2022-10-31T18:15:07;10.00;99.90
45207;DHT22;30950;53.086;21.576;2022-10-31T18:17:34;10.00;99.90
45207;DHT22;30950;53.086;21.576;2022-10-31T18:20:08;10.00;99.90
45207;DHT22;30950;53.086;21.576;2022-10-31T18:22:36;10.00;99.90
45207;DHT22;30950;53.086;21.576;2022-10-31T18:25:04;10.00;99.90
45207;DHT22;30950;53.086;21.576;2022-10-31T18:27:31;9.90;99.90
45207;DHT22;30950;53.086;21.576;2022-10-31T18:29:59;9.90;99.90
45207;DHT22;30950;53.086;21.576;2022-10-31T18:32:26;9.90;99.90
45207;DHT22;30950;53.086;21.576;2022-10-31T18:34:53;9.90;99.90
45207;DHT22;30950;53.086;21.576;2022-10-31T18:37:21;9.90;99.90
45207;DHT22;30950;53.086;21.576;2022-10-31T18:39:48;9.90;99.90
45207;DHT22;30950;53.086;21.576;2022-10-31T18:42:16;9.80;99.90
45207;DHT22;30950;53.086;21.576;2022-10-31T18:44:43;9.80;99.90
45207;DHT22;30950;53.086;21.576;2022-10-31T18:47:11;9.80;99.90
45207;DHT22;30950;53.086;21.576;2022-10-31T18:49:38;9.80;99.90
45207;DHT22;30950;53.086;21.576;2022-10-31T18:52:05;9.80;99.90
45207;DHT22;30950;53.086;21.576;2022-10-31T18:54:33;9.80;99.90
45207;DHT22;30950;53.086;21.576;2022-10-31T18:57:00;9.80;99.90
45207;DHT22;30950;53.086;21.576;2022-10-31T18:59:28;9.80;99.90
45207;DHT22;30950;53.086;21.576;2022-10-31T19:01:55;9.70;99.90